Time;durP1;ratioP1;P1;durP2;ratioP2;P2;SDS_P1;SDS_P2;PMS_P1;PMS_P2;Temp;Humidity;BMP_temperature;BMP_pressure;BME280_temperature;BME280_humidity;BME280_pressure;Samples;Min_cycle;Max_cycle;Signal;HPM_P1;HPM_P2
2022/07/11 00:01:09;;;;;;;3.03;1.70;;;;;;;;;;5092309;28;20226;-53
2022/07/11 00:03:37;;;;;;;2.20;1.77;;;;;;;;;;5092507;28;20562;-53
2022/07/11 00:06:03;;;;;;;3.20;1.80;;;;;;;;;;5092513;28;20574;-54
2022/07/11 00:08:29;;;;;;;3.53;2.00;;;;;;;;;;5092395;28;20612;-54
2022/07/11 00:10:55;;;;;;;4.90;2.27;;;;;;;;;;5092010;28;20226;-54
2022/07/11 00:13:21;;;;;;;2.90;1.90;;;;;;;;;;5092395;28;20195;-54
2022/07/11 00:15:47;;;;;;;2.33;1.90;;;;;;;;;;5092227;28;20581;-54
2022/07/11 00:18:13;;;;;;;4.30;2.17;;;;;;;;;;5092040;28;20203;-54
2022/07/11 00:20:40;;;;;;;5.40;2.03;;;;;;;;;;5092002;28;20275;-54
2022/07/11 00:23:06;;;;;;;3.60;1.90;;;;;;;;;;5092111;28;20699;-54
2022/07/11 00:25:32;;;;;;;4.57;2.30;;;;;;;;;;5092259;28;20187;-54
2022/07/11 00:27:58;;;;;;;4.70;2.00;;;;;;;;;;5091962;28;20203;-54
2022/07/11 00:30:24;;;;;;;2.83;1.80;;;;;;;;;;5091822;28;20241;-54
2022/07/11 00:32:50;;;;;;;4.43;1.90;;;;;;;;;;5092136;28;20195;-54
2022/07/11 00:35:16;;;;;;;2.10;1.60;;;;;;;;;;5092240;28;20246;-54
2022/07/11 00:37:43;;;;;;;4.93;1.93;;;;;;;;;;5092155;28;20323;-54
2022/07/11 00:40:10;;;;;;;2.63;2.13;;;;;;;;;;5091352;28;20616;-54
2022/07/11 00:42:36;;;;;;;3.00;1.97;;;;;;;;;;5091873;28;20222;-54
2022/07/11 00:45:03;;;;;;;3.17;1.97;;;;;;;;;;5091881;28;20198;-53
2022/07/11 00:47:28;;;;;;;4.80;1.63;;;;;;;;;;5092131;28;20199;-54
2022/07/11 00:49:55;;;;;;;4.10;2.03;;;;;;;;;;5091965;28;20653;-54
2022/07/11 00:52:21;;;;;;;4.13;2.40;;;;;;;;;;5091843;28;20630;-53
2022/07/11 00:54:49;;;;;;;3.57;2.30;;;;;;;;;;5091840;28;20565;-54
2022/07/11 00:57:15;;;;;;;3.40;2.00;;;;;;;;;;5091930;28;20202;-54
2022/07/11 00:59:41;;;;;;;3.37;2.07;;;;;;;;;;5091795;28;20222;-54
2022/07/11 01:02:08;;;;;;;3.03;1.80;;;;;;;;;;5091794;28;20554;-54
2022/07/11 01:04:34;;;;;;;3.73;2.10;;;;;;;;;;5091990;28;20198;-53
2022/07/11 01:07:00;;;;;;;3.33;1.97;;;;;;;;;;5091819;28;20217;-54
2022/07/11 01:09:26;;;;;;;5.27;2.10;;;;;;;;;;5091781;28;20225;-54
2022/07/11 01:11:53;;;;;;;3.60;2.20;;;;;;;;;;5091725;28;20205;-54
2022/07/11 01:14:19;;;;;;;4.07;2.20;;;;;;;;;;5091742;28;20209;-54
2022/07/11 01:16:45;;;;;;;5.73;2.33;;;;;;;;;;5091805;28;20223;-54
2022/07/11 01:19:11;;;;;;;4.67;2.20;;;;;;;;;;5091656;28;20190;-54
2022/07/11 01:21:39;;;;;;;5.40;2.43;;;;;;;;;;5091708;28;20281;-54
2022/07/11 01:24:07;;;;;;;4.43;2.47;;;;;;;;;;5091596;28;20314;-54
2022/07/11 01:26:33;;;;;;;4.83;2.60;;;;;;;;;;5091795;28;20195;-54
2022/07/11 01:29:05;;;;;;;5.03;2.70;;;;;;;;;;5091568;28;20195;-54
2022/07/11 01:31:31;;;;;;;2.67;2.03;;;;;;;;;;5091813;28;20191;-54
2022/07/11 01:33:58;;;;;;;4.13;2.40;;;;;;;;;;5091535;28;20679;-54
2022/07/11 01:36:24;;;;;;;4.43;2.80;;;;;;;;;;5091508;28;20744;-54
2022/07/11 01:38:50;;;;;;;2.30;2.10;;;;;;;;;;5091466;28;20229;-54
2022/07/11 01:41:17;;;;;;;5.17;2.73;;;;;;;;;;5091453;28;20270;-53
2022/07/11 01:43:43;;;;;;;4.20;2.73;;;;;;;;;;5091465;28;20211;-55
2022/07/11 01:46:09;;;;;;;6.13;2.53;;;;;;;;;;5090932;28;20187;-53
2022/07/11 01:48:35;;;;;;;3.20;2.43;;;;;;;;;;5091408;28;20206;-54
2022/07/11 01:51:01;;;;;;;3.80;2.70;;;;;;;;;;5091430;28;20208;-54
2022/07/11 01:53:27;;;;;;;3.13;2.50;;;;;;;;;;5094451;28;20352;-54
2022/07/11 01:55:53;;;;;;;8.10;2.70;;;;;;;;;;5094492;28;20227;-54
2022/07/11 01:58:20;;;;;;;4.53;2.73;;;;;;;;;;5093140;28;20209;-54
2022/07/11 02:00:46;;;;;;;2.60;2.40;;;;;;;;;;5094630;28;20234;-54
2022/07/11 02:03:12;;;;;;;5.77;3.03;;;;;;;;;;5092380;28;20199;-54
2022/07/11 02:05:39;;;;;;;6.73;2.90;;;;;;;;;;5094594;28;20191;-54
2022/07/11 02:08:11;;;;;;;4.83;3.20;;;;;;;;;;5094470;28;20195;-54
2022/07/11 02:10:37;;;;;;;4.87;3.10;;;;;;;;;;5094461;28;20201;-54
2022/07/11 02:13:03;;;;;;;5.73;3.33;;;;;;;;;;5094449;28;20570;-54
2022/07/11 02:15:31;;;;;;;4.87;3.97;;;;;;;;;;5094410;28;20234;-54
2022/07/11 02:17:57;;;;;;;4.57;3.70;;;;;;;;;;5094319;28;20229;-54
2022/07/11 02:20:24;;;;;;;7.97;3.53;;;;;;;;;;5094053;28;20801;-53
2022/07/11 02:22:50;;;;;;;3.53;3.20;;;;;;;;;;5094291;28;20289;-54
2022/07/11 02:25:16;;;;;;;7.07;4.10;;;;;;;;;;5094208;28;20274;-54
2022/07/11 02:27:42;;;;;;;6.03;4.00;;;;;;;;;;5094366;28;20248;-54
2022/07/11 02:30:08;;;;;;;7.27;4.30;;;;;;;;;;5094238;28;20198;-54
2022/07/11 02:32:36;;;;;;;7.23;4.13;;;;;;;;;;5094279;28;20612;-54
2022/07/11 02:35:02;;;;;;;5.93;4.37;;;;;;;;;;5094132;28;20215;-53
2022/07/11 02:37:28;;;;;;;6.57;4.57;;;;;;;;;;5094249;28;20197;-53
2022/07/11 02:39:54;;;;;;;6.10;4.10;;;;;;;;;;5093966;28;20573;-53
2022/07/11 02:42:20;;;;;;;5.33;4.40;;;;;;;;;;5093904;28;20198;-54
2022/07/11 02:44:46;;;;;;;5.23;4.00;;;;;;;;;;5094069;28;20198;-53
2022/07/11 02:47:14;;;;;;;6.73;4.13;;;;;;;;;;5093964;28;20234;-53
2022/07/11 02:49:41;;;;;;;5.63;4.00;;;;;;;;;;5093952;28;20278;-53
2022/07/11 02:52:07;;;;;;;4.80;4.00;;;;;;;;;;5093807;28;20230;-54
2022/07/11 02:54:33;;;;;;;5.10;3.37;;;;;;;;;;5093915;28;20697;-54
2022/07/11 02:57:00;;;;;;;7.77;3.87;;;;;;;;;;5093692;28;20261;-53
2022/07/11 02:59:26;;;;;;;5.43;4.10;;;;;;;;;;5093732;28;20223;-53
2022/07/11 03:01:52;;;;;;;3.40;3.10;;;;;;;;;;5093709;28;20203;-54
2022/07/11 03:04:18;;;;;;;4.57;2.93;;;;;;;;;;5093428;28;20641;-53
2022/07/11 03:06:46;;;;;;;3.50;3.20;;;;;;;;;;5093543;28;20195;-54
2022/07/11 03:09:12;;;;;;;4.00;3.17;;;;;;;;;;5093466;28;20248;-54
2022/07/11 03:11:38;;;;;;;5.10;3.10;;;;;;;;;;5093398;28;20558;-54
2022/07/11 03:14:04;;;;;;;3.10;2.80;;;;;;;;;;5093479;28;20199;-54
2022/07/11 03:16:30;;;;;;;4.73;2.73;;;;;;;;;;5093461;28;20240;-54
2022/07/11 03:18:57;;;;;;;3.83;2.70;;;;;;;;;;5093326;28;20194;-54
2022/07/11 03:21:23;;;;;;;3.80;2.57;;;;;;;;;;5093020;28;20274;-54
2022/07/11 03:23:51;;;;;;;4.77;2.63;;;;;;;;;;5093276;28;20202;-53
2022/07/11 03:26:17;;;;;;;3.57;2.80;;;;;;;;;;5093192;28;20206;-54
2022/07/11 03:28:43;;;;;;;3.23;2.93;;;;;;;;;;5093238;28;20209;-54
2022/07/11 03:31:09;;;;;;;5.23;3.20;;;;;;;;;;5093249;28;20492;-54
2022/07/11 03:33:35;;;;;;;4.43;2.90;;;;;;;;;;5093192;28;20199;-54
2022/07/11 03:36:01;;;;;;;5.40;2.80;;;;;;;;;;5092778;28;20218;-54
2022/07/11 03:38:27;;;;;;;3.93;2.90;;;;;;;;;;5092796;28;20252;-54
2022/07/11 03:40:56;;;;;;;4.60;2.90;;;;;;;;;;5092806;28;20277;-54
2022/07/11 03:43:22;;;;;;;3.20;2.80;;;;;;;;;;5092792;28;20566;-54
2022/07/11 03:45:48;;;;;;;3.63;2.67;;;;;;;;;;5092671;28;20191;-54
2022/07/11 03:48:14;;;;;;;4.00;2.80;;;;;;;;;;5092406;28;20569;-54
2022/07/11 03:50:40;;;;;;;5.47;2.47;;;;;;;;;;5092718;28;20191;-54
2022/07/11 03:53:06;;;;;;;3.47;2.60;;;;;;;;;;5092633;28;20272;-54
2022/07/11 03:55:32;;;;;;;2.97;2.53;;;;;;;;;;5092638;28;20219;-54
2022/07/11 03:58:00;;;;;;;2.80;2.60;;;;;;;;;;5092541;28;20241;-54
2022/07/11 04:00:26;;;;;;;6.57;2.80;;;;;;;;;;5092450;28;20566;-54
2022/07/11 04:02:52;;;;;;;3.57;2.50;;;;;;;;;;5092309;28;20210;-54
2022/07/11 04:05:18;;;;;;;5.20;2.73;;;;;;;;;;5092465;28;20558;-54
2022/07/11 04:07:44;;;;;;;4.47;2.70;;;;;;;;;;5092352;28;20236;-54
2022/07/11 04:10:10;;;;;;;4.47;3.30;;;;;;;;;;5091922;28;20619;-53
2022/07/11 04:12:36;;;;;;;6.53;2.70;;;;;;;;;;5092322;28;20651;-53
2022/07/11 04:15:06;;;;;;;3.70;2.87;;;;;;;;;;5091712;28;20230;-54
2022/07/11 04:17:32;;;;;;;3.97;2.83;;;;;;;;;;5092449;28;20191;-54
2022/07/11 04:19:58;;;;;;;3.67;2.60;;;;;;;;;;5092101;28;20226;-54
2022/07/11 04:22:25;;;;;;;6.00;2.63;;;;;;;;;;5092298;28;20206;-53
2022/07/11 04:24:51;;;;;;;3.47;2.33;;;;;;;;;;5092160;28;20278;-54
2022/07/11 04:27:17;;;;;;;4.80;2.53;;;;;;;;;;5092352;28;20278;-53
2022/07/11 04:29:43;;;;;;;2.80;2.30;;;;;;;;;;5092162;28;20661;-54
2022/07/11 04:32:10;;;;;;;3.77;2.50;;;;;;;;;;5092095;28;20248;-54
2022/07/11 04:34:36;;;;;;;4.37;2.70;;;;;;;;;;5092159;28;20207;-54
2022/07/11 04:37:03;;;;;;;5.47;2.70;;;;;;;;;;5092094;28;20318;-54
2022/07/11 04:39:29;;;;;;;4.10;2.40;;;;;;;;;;5092103;28;20202;-54
2022/07/11 04:41:55;;;;;;;5.17;2.70;;;;;;;;;;5091966;28;20653;-54
2022/07/11 04:44:21;;;;;;;3.30;2.23;;;;;;;;;;5091879;28;20202;-54
2022/07/11 04:46:48;;;;;;;3.37;2.57;;;;;;;;;;5092077;28;20191;-54
2022/07/11 04:49:15;;;;;;;4.40;2.00;;;;;;;;;;5091898;28;20227;-55
2022/07/11 04:51:41;;;;;;;5.50;2.20;;;;;;;;;;5091923;28;20198;-55
2022/07/11 04:54:08;;;;;;;4.13;2.40;;;;;;;;;;5091709;28;20293;-54
2022/07/11 04:56:34;;;;;;;5.10;2.40;;;;;;;;;;5091944;28;20230;-53
2022/07/11 04:59:01;;;;;;;5.60;2.10;;;;;;;;;;5091700;28;20274;-54
2022/07/11 05:01:28;;;;;;;3.60;2.20;;;;;;;;;;5091944;28;20203;-55
2022/07/11 05:03:54;;;;;;;3.93;1.90;;;;;;;;;;5091834;28;20585;-54
2022/07/11 05:06:22;;;;;;;5.50;1.97;;;;;;;;;;5091513;28;20195;-54
2022/07/11 05:08:48;;;;;;;2.47;1.93;;;;;;;;;;5091760;28;20207;-54
2022/07/11 05:11:14;;;;;;;2.67;1.80;;;;;;;;;;5091491;28;20202;-54
2022/07/11 05:13:40;;;;;;;4.73;2.20;;;;;;;;;;5091590;28;20225;-54
2022/07/11 05:16:06;;;;;;;2.57;1.70;;;;;;;;;;5091332;28;20694;-54
2022/07/11 05:18:33;;;;;;;2.30;1.60;;;;;;;;;;5091684;28;20195;-54
2022/07/11 05:20:59;;;;;;;4.27;1.73;;;;;;;;;;5091572;28;20329;-55
2022/07/11 05:23:26;;;;;;;3.30;1.93;;;;;;;;;;5091684;28;20195;-53
2022/07/11 05:25:52;;;;;;;3.60;2.30;;;;;;;;;;5092454;28;20237;-53
2022/07/11 05:28:18;;;;;;;3.37;2.20;;;;;;;;;;5095322;28;20215;-53
2022/07/11 05:30:44;;;;;;;5.23;1.97;;;;;;;;;;5095235;28;20274;-53
2022/07/11 05:33:10;;;;;;;5.03;1.90;;;;;;;;;;5095135;28;20203;-54
2022/07/11 05:35:36;;;;;;;3.30;1.90;;;;;;;;;;5095085;28;20231;-54
2022/07/11 05:38:02;;;;;;;3.10;1.90;;;;;;;;;;5095308;28;20598;-54
2022/07/11 05:40:29;;;;;;;4.27;2.20;;;;;;;;;;5095075;28;20231;-54
2022/07/11 05:42:55;;;;;;;4.57;1.90;;;;;;;;;;5095151;28;20244;-54
2022/07/11 05:45:21;;;;;;;6.93;2.33;;;;;;;;;;5094906;28;20597;-54
2022/07/11 05:47:47;;;;;;;5.50;2.13;;;;;;;;;;5095117;28;20233;-54
2022/07/11 05:50:13;;;;;;;6.37;2.10;;;;;;;;;;5094612;28;20192;-53
2022/07/11 05:52:39;;;;;;;5.07;2.10;;;;;;;;;;5095121;28;20561;-54
2022/07/11 05:55:06;;;;;;;3.20;1.63;;;;;;;;;;5094799;28;20198;-54
2022/07/11 05:57:33;;;;;;;6.57;2.40;;;;;;;;;;5094935;28;20219;-54
2022/07/11 05:59:59;;;;;;;3.17;1.90;;;;;;;;;;5094753;28;20223;-54
2022/07/11 06:02:25;;;;;;;3.13;2.00;;;;;;;;;;5094893;28;20198;-54
2022/07/11 06:04:51;;;;;;;3.53;1.90;;;;;;;;;;5094689;28;20202;-54
2022/07/11 06:10:02;;;;;;;5.07;2.10;;;;;;;;;;5094718;28;20240;-54
2022/07/11 06:12:28;;;;;;;2.67;1.60;;;;;;;;;;5094016;28;20565;-54
2022/07/11 06:14:55;;;;;;;2.53;1.60;;;;;;;;;;5094615;28;20226;-54
2022/07/11 06:17:21;;;;;;;4.03;1.73;;;;;;;;;;5092331;28;20237;-54
2022/07/11 06:19:48;;;;;;;2.63;1.30;;;;;;;;;;5094060;28;20199;-54
2022/07/11 06:22:14;;;;;;;3.03;1.27;;;;;;;;;;5094066;28;20215;-53
2022/07/11 06:24:40;;;;;;;4.20;1.43;;;;;;;;;;5094297;28;20230;-54
2022/07/11 06:27:06;;;;;;;1.77;1.13;;;;;;;;;;5094111;28;20669;-54
2022/07/11 06:29:32;;;;;;;2.30;1.10;;;;;;;;;;5094201;28;20198;-54
2022/07/11 06:31:59;;;;;;;2.10;1.10;;;;;;;;;;5094104;28;20198;-53
2022/07/11 06:34:25;;;;;;;3.93;1.40;;;;;;;;;;5094198;28;20191;-52
2022/07/11 06:36:51;;;;;;;3.07;1.17;;;;;;;;;;5094082;28;20325;-53
2022/07/11 06:39:17;;;;;;;3.37;1.30;;;;;;;;;;5093339;28;20242;-52
2022/07/11 06:41:43;;;;;;;3.17;1.30;;;;;;;;;;5094061;28;20195;-53
2022/07/11 06:44:09;;;;;;;5.13;1.20;;;;;;;;;;5093907;28;20199;-53
2022/07/11 06:46:35;;;;;;;1.90;1.10;;;;;;;;;;5093740;28;20653;-54
2022/07/11 06:49:03;;;;;;;2.83;1.10;;;;;;;;;;5094231;28;20194;-53
2022/07/11 06:51:29;;;;;;;1.07;0.97;;;;;;;;;;5093850;28;20195;-55
2022/07/11 06:53:55;;;;;;;3.27;1.10;;;;;;;;;;5093781;28;20341;-54
2022/07/11 06:56:20;;;;;;;4.13;1.40;;;;;;;;;;5093651;28;20628;-53
2022/07/11 06:58:47;;;;;;;2.20;1.30;;;;;;;;;;5093893;28;20303;-54
2022/07/11 07:01:13;;;;;;;1.97;1.40;;;;;;;;;;5093263;28;20203;-53
2022/07/11 07:03:39;;;;;;;1.37;1.20;;;;;;;;;;5093416;28;20253;-54
2022/07/11 07:06:06;;;;;;;1.40;1.17;;;;;;;;;;5093485;28;20195;-53
2022/07/11 07:08:32;;;;;;;2.23;1.30;;;;;;;;;;5093596;28;20207;-53
2022/07/11 07:10:58;;;;;;;2.37;1.40;;;;;;;;;;5093701;28;20199;-53
2022/07/11 07:13:25;;;;;;;2.40;1.30;;;;;;;;;;5093551;28;20192;-53
2022/07/11 07:15:52;;;;;;;1.97;1.50;;;;;;;;;;5093122;28;20735;-53
2022/07/11 07:18:18;;;;;;;1.73;1.57;;;;;;;;;;5093363;28;20211;-53
2022/07/11 07:20:44;;;;;;;2.60;1.30;;;;;;;;;;5093194;28;20231;-53
2022/07/11 07:23:11;;;;;;;3.37;1.80;;;;;;;;;;5093093;28;20210;-53
2022/07/11 07:25:37;;;;;;;3.53;1.80;;;;;;;;;;5093301;28;20200;-53
2022/07/11 07:28:03;;;;;;;2.20;1.33;;;;;;;;;;5093036;28;20569;-53
2022/07/11 07:30:29;;;;;;;2.60;1.83;;;;;;;;;;5093174;28;20308;-52
2022/07/11 07:32:55;;;;;;;1.67;1.50;;;;;;;;;;5093076;28;20676;-53
2022/07/11 07:35:21;;;;;;;2.20;1.40;;;;;;;;;;5092886;28;20282;-52
2022/07/11 07:37:47;;;;;;;2.63;1.80;;;;;;;;;;5092937;28;20199;-51
2022/07/11 07:40:15;;;;;;;3.27;1.67;;;;;;;;;;5092896;28;20202;-51
2022/07/11 07:42:41;;;;;;;4.67;1.60;;;;;;;;;;5093023;28;20248;-51
2022/07/11 07:45:07;;;;;;;2.97;1.70;;;;;;;;;;5092861;28;20208;-51
2022/07/11 07:47:34;;;;;;;4.03;1.90;;;;;;;;;;5093069;28;20218;-54
2022/07/11 07:50:00;;;;;;;2.10;1.47;;;;;;;;;;5092096;28;20532;-51
2022/07/11 07:52:26;;;;;;;2.27;1.50;;;;;;;;;;5092604;28;20206;-52
2022/07/11 07:54:52;;;;;;;1.63;1.20;;;;;;;;;;5092712;28;20741;-50
2022/07/11 07:57:19;;;;;;;1.77;1.43;;;;;;;;;;5092649;28;20226;-50
2022/07/11 07:59:45;;;;;;;1.63;1.33;;;;;;;;;;5092560;28;20223;-51
2022/07/11 08:02:11;;;;;;;1.50;1.40;;;;;;;;;;5092398;28;20194;-50
2022/07/11 08:04:37;;;;;;;2.13;1.40;;;;;;;;;;5092583;28;20211;-50
2022/07/11 08:07:03;;;;;;;1.43;1.33;;;;;;;;;;5092832;28;20195;-52
2022/07/11 08:09:29;;;;;;;1.67;1.40;;;;;;;;;;5092499;28;20199;-48
2022/07/11 08:11:55;;;;;;;2.13;1.40;;;;;;;;;;5092348;28;20653;-50
2022/07/11 08:14:23;;;;;;;2.53;1.57;;;;;;;;;;5092537;28;20208;-51
2022/07/11 08:16:49;;;;;;;2.53;1.30;;;;;;;;;;5092313;28;20231;-50
2022/07/11 08:19:15;;;;;;;1.83;1.20;;;;;;;;;;5092392;28;20200;-52
2022/07/11 08:21:42;;;;;;;2.17;1.70;;;;;;;;;;5092377;28;20325;-51
2022/07/11 08:24:07;;;;;;;1.70;1.60;;;;;;;;;;5092245;28;20278;-52
2022/07/11 08:26:34;;;;;;;2.80;1.93;;;;;;;;;;5092605;28;20641;-51
2022/07/11 08:29:00;;;;;;;2.10;1.70;;;;;;;;;;5092384;28;20606;-52
2022/07/11 08:31:27;;;;;;;4.23;2.00;;;;;;;;;;5092289;28;20747;-52
2022/07/11 08:33:53;;;;;;;2.10;1.90;;;;;;;;;;5092236;28;20294;-50
2022/07/11 08:36:19;;;;;;;2.03;1.93;;;;;;;;;;5092220;28;20685;-51
2022/07/11 08:38:48;;;;;;;2.10;1.90;;;;;;;;;;5090609;28;20219;-51
2022/07/11 08:41:15;;;;;;;2.17;1.97;;;;;;;;;;5092189;28;20207;-50
2022/07/11 08:43:42;;;;;;;2.67;1.93;;;;;;;;;;5092230;28;20248;-50
2022/07/11 08:46:08;;;;;;;3.80;2.43;;;;;;;;;;5091979;28;20653;-50
2022/07/11 08:48:38;;;;;;;2.17;1.50;;;;;;;;;;5092269;28;20237;-51
2022/07/11 08:51:05;;;;;;;2.70;2.27;;;;;;;;;;5091853;28;20207;-52
2022/07/11 08:53:33;;;;;;;2.80;1.70;;;;;;;;;;5091728;28;20257;-52
2022/07/11 08:56:00;;;;;;;2.17;1.60;;;;;;;;;;5091817;28;20278;-51
2022/07/11 08:58:26;;;;;;;1.40;1.30;;;;;;;;;;5091787;28;20262;-52
2022/07/11 09:00:52;;;;;;;1.40;1.20;;;;;;;;;;5092491;28;20562;-52
2022/07/11 09:03:18;;;;;;;1.27;1.17;;;;;;;;;;5095806;28;20699;-52
2022/07/11 09:05:46;;;;;;;1.70;1.30;;;;;;;;;;5095922;28;20663;-52
2022/07/11 09:08:12;;;;;;;2.03;1.10;;;;;;;;;;5095968;28;20301;-52
2022/07/11 09:10:39;;;;;;;1.40;1.00;;;;;;;;;;5096116;28;20240;-51
2022/07/11 09:13:06;;;;;;;2.17;1.10;;;;;;;;;;5095932;28;20680;-52
2022/07/11 09:15:37;;;;;;;1.17;0.90;;;;;;;;;;5095903;28;20195;-53
2022/07/11 09:18:03;;;;;;;2.03;1.03;;;;;;;;;;5095949;28;20202;-52
2022/07/11 09:25:19;;;;;;;2.80;1.00;;;;;;;;;;5095648;28;20244;-52
2022/07/11 09:26:14;;;;;;;1.20;1.10;;;;;;;;;;5094699;28;20207;-51
2022/07/11 09:28:40;;;;;;;1.70;1.30;;;;;;;;;;5095511;28;20193;-50
2022/07/11 09:31:15;;;;;;;1.20;1.10;;;;;;;;;;5095288;28;20713;-50
2022/07/11 09:33:57;;;;;;;2.27;1.20;;;;;;;;;;5095446;28;20200;-50
2022/07/11 09:36:33;;;;;;;3.17;1.63;;;;;;;;;;5095005;28;20225;-50
2022/07/11 09:39:01;;;;;;;1.10;1.00;;;;;;;;;;5095501;28;20192;-50
2022/07/11 09:41:31;;;;;;;2.07;1.40;;;;;;;;;;5095330;28;20262;-51
2022/07/11 09:44:05;;;;;;;1.40;1.30;;;;;;;;;;5095327;28;20207;-51
2022/07/11 09:46:31;;;;;;;1.60;1.40;;;;;;;;;;5095488;28;20196;-50
2022/07/11 09:49:00;;;;;;;1.30;1.20;;;;;;;;;;5095399;28;20273;-50
2022/07/11 09:51:27;;;;;;;1.40;1.23;;;;;;;;;;5095162;28;20195;-50
2022/07/11 09:53:55;;;;;;;1.23;1.13;;;;;;;;;;5095229;28;20572;-50
2022/07/11 09:56:25;;;;;;;1.47;1.30;;;;;;;;;;5094970;28;20216;-49
2022/07/11 09:58:59;;;;;;;3.33;1.07;;;;;;;;;;5095142;28;20204;-50
2022/07/11 10:01:26;;;;;;;0.90;0.90;;;;;;;;;;5095060;28;20210;-51
2022/07/11 10:03:52;;;;;;;1.23;1.13;;;;;;;;;;5095136;28;20203;-50
2022/07/11 10:06:18;;;;;;;1.27;1.13;;;;;;;;;;5094709;28;20571;-51
2022/07/11 10:08:44;;;;;;;2.00;0.87;;;;;;;;;;5094843;28;20202;-51
2022/07/11 10:11:11;;;;;;;0.83;0.83;;;;;;;;;;5094695;28;20771;-52
2022/07/11 10:13:38;;;;;;;2.30;1.03;;;;;;;;;;5093840;28;20329;-51
2022/07/11 10:16:08;;;;;;;0.70;0.70;;;;;;;;;;5094732;28;20246;-51
2022/07/11 10:18:39;;;;;;;1.60;0.90;;;;;;;;;;5094781;28;20251;-49
2022/07/11 10:21:08;;;;;;;0.73;0.73;;;;;;;;;;5094572;28;20291;-51
2022/07/11 10:23:36;;;;;;;0.70;0.70;;;;;;;;;;5094662;28;20210;-49
2022/07/11 10:26:05;;;;;;;1.07;0.80;;;;;;;;;;5094773;28;20208;-50
2022/07/11 10:28:34;;;;;;;1.80;0.80;;;;;;;;;;5094554;28;20225;-50
2022/07/11 10:31:01;;;;;;;1.30;1.00;;;;;;;;;;5094181;28;20200;-51
2022/07/11 10:33:28;;;;;;;0.97;0.90;;;;;;;;;;5093917;28;20221;-50
2022/07/11 10:35:54;;;;;;;0.97;0.97;;;;;;;;;;5094255;28;20218;-51
2022/07/11 10:38:20;;;;;;;2.30;0.93;;;;;;;;;;5094222;28;20200;-51
2022/07/11 10:40:48;;;;;;;1.40;0.90;;;;;;;;;;5094390;28;20296;-51
2022/07/11 10:43:15;;;;;;;1.50;0.80;;;;;;;;;;5093961;28;20671;-52
2022/07/11 10:45:58;;;;;;;1.13;0.80;;;;;;;;;;5094281;28;20198;-52
2022/07/11 10:48:26;;;;;;;1.13;0.80;;;;;;;;;;5093986;28;20198;-52
2022/07/11 10:51:03;;;;;;;0.70;0.70;;;;;;;;;;5094199;28;20198;-51
2022/07/11 10:53:32;;;;;;;0.73;0.70;;;;;;;;;;5094028;28;20205;-52
2022/07/11 10:56:03;;;;;;;1.07;0.97;;;;;;;;;;5093952;28;20763;-53
2022/07/11 10:58:30;;;;;;;0.70;0.70;;;;;;;;;;5093871;28;20190;-53
2022/07/11 11:01:09;;;;;;;0.93;0.90;;;;;;;;;;5094143;28;20228;-53
2022/07/11 11:03:36;;;;;;;1.90;0.83;;;;;;;;;;5093898;28;20277;-53
2022/07/11 11:06:03;;;;;;;1.10;1.00;;;;;;;;;;5093919;28;20218;-52
2022/07/11 11:08:44;;;;;;;1.90;1.10;;;;;;;;;;5093631;28;20214;-51
2022/07/11 11:11:35;;;;;;;2.10;1.20;;;;;;;;;;5089552;28;20202;-51
2022/07/11 11:14:20;;;;;;;0.83;0.83;;;;;;;;;;5093608;28;20190;-51
2022/07/11 11:16:46;;;;;;;1.20;1.10;;;;;;;;;;5093388;28;20257;-49
2022/07/11 11:19:27;;;;;;;1.10;0.90;;;;;;;;;;5091800;28;20199;-49
2022/07/11 11:22:02;;;;;;;1.00;1.00;;;;;;;;;;5085481;28;20233;-49
2022/07/11 11:24:28;;;;;;;2.80;1.80;;;;;;;;;;5092703;28;20255;-50
2022/07/11 11:26:54;;;;;;;1.57;1.20;;;;;;;;;;5093315;28;20201;-50
2022/07/11 11:29:21;;;;;;;1.20;1.10;;;;;;;;;;5093040;28;20211;-50
2022/07/11 11:31:49;;;;;;;1.43;1.03;;;;;;;;;;5093135;28;20206;-51
2022/07/11 11:34:15;;;;;;;1.37;1.03;;;;;;;;;;5092307;28;20251;-51
2022/07/11 11:36:41;;;;;;;0.90;0.90;;;;;;;;;;5093036;28;20282;-51
2022/07/11 11:39:08;;;;;;;1.33;1.00;;;;;;;;;;5093110;28;20212;-50
2022/07/11 11:41:34;;;;;;;1.37;1.20;;;;;;;;;;5093022;28;20191;-50
2022/07/11 11:44:01;;;;;;;1.47;1.00;;;;;;;;;;5093227;28;20201;-51
2022/07/11 11:46:27;;;;;;;2.17;1.10;;;;;;;;;;5092852;28;20197;-51
2022/07/11 11:48:55;;;;;;;1.27;0.97;;;;;;;;;;5092877;28;20390;-47
2022/07/11 11:51:21;;;;;;;2.13;1.20;;;;;;;;;;5092603;28;20205;-49
2022/07/11 11:53:48;;;;;;;1.30;1.20;;;;;;;;;;5092779;28;20228;-49
2022/07/11 11:56:16;;;;;;;1.73;0.90;;;;;;;;;;5092411;28;20253;-49
2022/07/11 11:58:43;;;;;;;1.47;1.30;;;;;;;;;;5092908;28;20206;-50
2022/07/11 12:01:09;;;;;;;1.97;0.90;;;;;;;;;;5092512;28;20322;-50
2022/07/11 12:03:46;;;;;;;1.77;1.17;;;;;;;;;;5092184;28;20252;-50
2022/07/11 12:06:12;;;;;;;0.80;0.80;;;;;;;;;;5092471;28;20194;-50
2022/07/11 12:08:38;;;;;;;2.27;1.10;;;;;;;;;;5092359;28;20679;-50
2022/07/11 12:11:04;;;;;;;1.30;1.00;;;;;;;;;;5092753;28;20267;-50
2022/07/11 12:13:32;;;;;;;1.40;1.30;;;;;;;;;;5092345;28;20230;-50
2022/07/11 12:18:42;;;;;;;2.33;2.13;;;;;;;;;;5092543;28;20194;-49
2022/07/11 12:21:12;;;;;;;1.77;1.67;;;;;;;;;;5092261;28;20237;-48
2022/07/11 12:23:38;;;;;;;1.90;1.70;;;;;;;;;;5092215;28;20195;-49
2022/07/11 12:26:05;;;;;;;1.80;1.70;;;;;;;;;;5092419;28;20608;-48
2022/07/11 12:28:32;;;;;;;1.93;1.70;;;;;;;;;;5092383;28;20197;-48
2022/07/11 12:30:58;;;;;;;2.47;1.70;;;;;;;;;;5092423;28;20201;-49
2022/07/11 12:33:25;;;;;;;1.67;1.57;;;;;;;;;;5091949;28;20246;-49
2022/07/11 12:35:55;;;;;;;1.47;1.37;;;;;;;;;;5091397;28;20202;-48
2022/07/11 12:38:22;;;;;;;3.07;1.60;;;;;;;;;;5092089;28;20194;-48
2022/07/11 12:41:03;;;;;;;3.93;1.50;;;;;;;;;;5092186;28;20679;-48
2022/07/11 12:46:32;;;;;;;1.93;1.13;;;;;;;;;;5090135;28;20743;-51
2022/07/11 12:48:59;;;;;;;1.07;1.07;;;;;;;;;;5091761;28;20271;-51
2022/07/11 12:51:29;;;;;;;1.03;0.90;;;;;;;;;;5089978;28;20202;-52
2022/07/11 12:53:59;;;;;;;0.70;0.70;;;;;;;;;;5092045;28;20252;-52
2022/07/11 12:56:25;;;;;;;1.53;0.90;;;;;;;;;;5089991;28;20408;-52
2022/07/11 12:58:52;;;;;;;0.83;0.83;;;;;;;;;;5090001;28;20191;-51
2022/07/11 13:01:18;;;;;;;0.70;0.70;;;;;;;;;;5091303;28;20582;-49
2022/07/11 13:03:44;;;;;;;0.70;0.70;;;;;;;;;;5091718;28;20200;-50
2022/07/11 13:06:10;;;;;;;0.77;0.70;;;;;;;;;;5091958;28;20299;-50
2022/07/11 13:08:46;;;;;;;0.70;0.70;;;;;;;;;;5091872;28;20199;-50
2022/07/11 13:11:13;;;;;;;0.63;0.63;;;;;;;;;;5091909;28;20194;-50
2022/07/11 13:13:39;;;;;;;0.93;0.73;;;;;;;;;;5091996;28;20281;-50
2022/07/11 13:16:07;;;;;;;0.80;0.80;;;;;;;;;;5091544;28;20267;-50
2022/07/11 13:18:33;;;;;;;0.67;0.67;;;;;;;;;;5092004;28;20195;-50
2022/07/11 13:21:00;;;;;;;1.73;0.90;;;;;;;;;;5091374;28;20230;-51
2022/07/11 13:23:27;;;;;;;0.97;0.80;;;;;;;;;;5091718;28;20198;-51
2022/07/11 13:25:53;;;;;;;0.60;0.60;;;;;;;;;;5091520;28;20660;-51
2022/07/11 13:28:19;;;;;;;0.90;0.60;;;;;;;;;;5091789;28;20198;-52
2022/07/11 13:30:46;;;;;;;0.83;0.60;;;;;;;;;;5091702;28;20198;-51
2022/07/11 13:33:13;;;;;;;1.40;0.60;;;;;;;;;;5091504;28;20229;-51
2022/07/11 13:35:40;;;;;;;0.50;0.50;;;;;;;;;;5091698;28;20203;-51
2022/07/11 13:38:06;;;;;;;0.67;0.50;;;;;;;;;;5091602;28;20242;-52
2022/07/11 13:40:33;;;;;;;0.80;0.60;;;;;;;;;;5091609;28;20222;-52
2022/07/11 13:43:00;;;;;;;1.43;0.97;;;;;;;;;;5091622;28;20195;-52
2022/07/11 13:45:27;;;;;;;0.30;0.30;;;;;;;;;;5091538;28;20199;-52
2022/07/11 13:47:53;;;;;;;1.77;0.87;;;;;;;;;;5093716;28;20195;-51
2022/07/11 13:50:23;;;;;;;0.63;0.63;;;;;;;;;;5095203;28;20208;-51
2022/07/11 13:52:50;;;;;;;1.10;1.00;;;;;;;;;;5095275;28;20199;-52
2022/07/11 13:55:16;;;;;;;1.80;0.87;;;;;;;;;;5095140;28;20273;-52
2022/07/11 13:57:42;;;;;;;1.27;1.17;;;;;;;;;;5094993;28;20700;-52
2022/07/11 14:00:09;;;;;;;1.00;1.00;;;;;;;;;;5095009;28;20309;-52
2022/07/11 14:02:35;;;;;;;2.20;1.30;;;;;;;;;;5094972;28;20233;-52
2022/07/11 14:05:01;;;;;;;1.17;0.73;;;;;;;;;;5094949;28;20222;-52
2022/07/11 14:07:28;;;;;;;0.97;0.97;;;;;;;;;;5094767;28;20195;-52
2022/07/11 14:09:54;;;;;;;2.33;0.93;;;;;;;;;;5094999;28;20203;-52
2022/07/11 14:12:20;;;;;;;2.07;1.03;;;;;;;;;;5094854;28;20229;-53
2022/07/11 14:14:46;;;;;;;1.60;0.70;;;;;;;;;;5094655;28;20336;-52
2022/07/11 14:17:12;;;;;;;1.20;1.10;;;;;;;;;;5094493;28;20212;-52
2022/07/11 14:19:39;;;;;;;1.30;0.93;;;;;;;;;;5093969;28;20198;-52
2022/07/11 14:22:10;;;;;;;0.80;0.60;;;;;;;;;;5094426;28;20352;-52
2022/07/11 14:24:38;;;;;;;3.40;1.10;;;;;;;;;;5091594;28;20248;-51
2022/07/11 14:27:04;;;;;;;1.50;0.83;;;;;;;;;;5093665;28;20206;-50
2022/07/11 14:29:31;;;;;;;1.33;0.90;;;;;;;;;;5094224;28;20190;-51
2022/07/11 14:31:57;;;;;;;3.30;0.80;;;;;;;;;;5094050;28;20203;-51
2022/07/11 14:34:23;;;;;;;0.70;0.70;;;;;;;;;;5093928;28;20199;-52
2022/07/11 14:36:50;;;;;;;1.80;0.87;;;;;;;;;;5093792;28;20646;-52
2022/07/11 14:39:16;;;;;;;1.20;0.87;;;;;;;;;;5093829;28;20227;-51
2022/07/11 14:41:46;;;;;;;1.13;0.80;;;;;;;;;;5093739;28;20229;-51
2022/07/11 14:44:13;;;;;;;0.97;0.77;;;;;;;;;;5093732;28;20248;-52
2022/07/11 14:46:40;;;;;;;0.80;0.70;;;;;;;;;;5093508;28;20570;-52
2022/07/11 14:49:08;;;;;;;1.03;0.70;;;;;;;;;;5093501;28;20202;-53
2022/07/11 14:51:34;;;;;;;2.20;0.70;;;;;;;;;;5093624;28;20222;-52
2022/07/11 14:54:00;;;;;;;0.50;0.50;;;;;;;;;;5093657;28;20203;-52